Seleccionar página


LEBB VRB/03 LEBB 072030Z VRB03KT 9999 FEW045 14/04 Q1014 NOSIG Departures: 30 Arrivals: 30 No hay condiciones
LEBG 210/08 LEBG 072030Z 21008KT 9999 SCT025 BKN033 06/03 Q1015 Departures: 04 Arrivals: 04 No hay condiciones
LECU 220/11 LEVS 071900Z 22011KT 9999 FEW050 09/03 Q1016 Departures: 27 Arrivals: 27 No hay condiciones
LEGT 240/08 LEGT 072000Z 24008KT CAVOK 09/03 Q1016 Departures: 23 Arrivals: 23 No hay condiciones
LEHC 330/03 LEHC 072030Z AUTO 33003KT 9999 NCD 03/M03 Q1015 Departures: 12R Arrivals: 12R No hay condiciones
LEMD 190/15 LEMD 072030Z 19005G15KT 130V250 CAVOK 09/03 Q1016 NOSIG Departures: 14L 14R Arrivals: 18L 18R No hay condiciones
LEPP 140/06 LEPP 072030Z 14006KT 9999 FEW055 07/02 Q1015 Departures: 15 Arrivals: 15 No hay condiciones
LERJ 160/03 LELO 072030Z 16003KT 9999 FEW065 07/02 Q1015 Departures: 29 Arrivals: 29 No hay condiciones
LESA 230/06 LESA 072030Z AUTO 23006KT 200V260 5000 BR OVC015/// 06/04 Q1015 Departures: 21 Arrivals: 21 No hay condiciones
LESO VRB/02 LESO 072030Z VRB02KT 9999 FEW055 12/05 Q1014 Departures: 22 Arrivals: 22 No hay condiciones
LETO 220/09 LETO 072000Z 22009KT CAVOK 08/03 Q1016 NOSIG Departures: 22 Arrivals: 22 No hay condiciones
LEVD 250/07 LEVD 072030Z 25007KT 9999 DZ SCT019 BKN032 06/04 Q1015 Departures: 23 Arrivals: 23 No hay condiciones
LEVT 230/05 LEVT 072030Z 23005KT 190V270 9999 SCT050 09/02 Q1014 Departures: 04 Arrivals: 04 No hay condiciones
LEXJ 050/03 LEXJ 072030Z 05003KT 9999 SCT080 13/08 Q1013 Departures: 29 Arrivals: 29 No hay condiciones
LEZG 220/07 LEZG 072030Z 22007KT 9999 SCT080 11/M02 Q1015 Departures: 30R Arrivals: 30R No hay condiciones

LEBL 230/07 LEBL 072030Z 23007KT CAVOK 12/06 Q1016 NOSIG Departures: 25R 25L Arrivals: 25R No hay condiciones
LEDA 030/01 LEDA 072030Z AUTO 03001KT 9999 NCD 04/M00 Q1015 Departures: 31 Arrivals: 31 No hay condiciones
LEGE 240/04 LEGE 072030Z 24004KT 9999 FEW030 08/07 Q1015 Departures: 20 Arrivals: 20 No hay condiciones
LELL VRB/02 LELL 072030Z AUTO VRB02KT 9999 NCD 09/01 Q1015 Departures: 31 Arrivals: 31 No hay condiciones
LERS 270/04 LERS 072030Z 27004KT CAVOK 09/06 Q1016 Departures: 25 Arrivals: 25 No hay condiciones
LESU 230/06 LESU 071730Z 23006KT 180V260 9999 SCT055 10/M07 Q1012 Departures: 03 Arrivals: 03 No hay condiciones

GCFV 360/15 GCFV 072030Z 36015KT 9999 SCT030 BKN040 18/12 Q1023 Departures: 01R Arrivals: 01R No hay condiciones
GCGM 080/11 GCTS 072030Z 08011KT 9999 FEW038 18/10 Q1025 NOSIG Departures: 09 Arrivals: 09 No hay condiciones
GCHI 360/17 GCHI 072030Z AUTO 36017KT CAVOK 18/13 Q1026 Departures: 34 Arrivals: 34 No hay condiciones
GCLA 030/16 GCLA 072030Z 03016KT 350V070 9999 FEW035 18/13 Q1026 Departures: 36 Arrivals: 36 No hay condiciones
GCLP 360/22 GCLP 072030Z 36022KT 9999 FEW025 SCT035 17/12 Q1024 NOSIG Departures: 03L 03R Arrivals: 03L No hay condiciones
GCRR 010/10 GCRR 072030Z 01010KT 330V040 9999 FEW040 17/11 Q1024 Departures: 03 Arrivals: 03 No hay condiciones
GCTS 080/11 GCTS 072030Z 08011KT 9999 FEW038 18/10 Q1025 NOSIG Departures: 07 Arrivals: 07 No hay condiciones
GCXO 290/20 GCXO 072030Z 29020KT 9999 BKN011 12/11 Q1026 NOSIG Departures: 30 Arrivals: 30 No hay condiciones

GEML 260/09 GEML 072030Z AUTO 26009KT 200V300 9999 NCD 15/08 Q1019 Departures: 15 Arrivals: 15 No hay condiciones
LEAB 290/03 LEAB 072000Z 29003KT CAVOK 05/M04 Q1017 NOSIG Departures: 27 Arrivals: 27 No hay condiciones
LEAM 240/03 LEAM 072030Z 24003KT 200V290 9999 FEW050 14/09 Q1017 Departures: 25 Arrivals: 25 No hay condiciones
LEBZ 250/05 LEBZ 072000Z 25005KT 8000 -RA SCT045 11/10 Q1016 Departures: 31 Arrivals: 31 No hay condiciones
LEGA VRB/02 LEGA 072000Z VRB02KT CAVOK 08/00 Q1019 Departures: 36 Arrivals: 36 No hay condiciones
LEGR 190/02 LEGR 072030Z 19002KT 9999 FEW050 05/01 Q1019 Departures: 09 Arrivals: 09 No hay condiciones
LEJR VRB/02 LEJR 072030Z VRB02KT CAVOK 10/08 Q1019 Departures: 20 Arrivals: 20 No hay condiciones
LEMG 280/05 LEMG 072030Z 28005KT 9999 FEW070 13/03 Q1018 NOSIG Departures: 13 Arrivals: 13 12 No hay condiciones
LEMO 220/06 LEMO 072000Z 22006KT 9999 FEW046 11/08 Q1019 NOSIG Departures: 20 Arrivals: 20 No hay condiciones
LERL 0/0 Departures: Arrivals: No hay condiciones
LERT 220/08 LERT 072000Z 22008KT 9999 FEW028 14/09 Q1019 NOSIG Departures: 10 Arrivals: 10 No hay condiciones
LEZL 210/04 LEZL 072030Z 21004KT 160V250 9999 FEW030 13/09 Q1019 NOSIG Departures: 27 Arrivals: 27 No hay condiciones

LEIB 220/08 LEIB 072030Z 22008KT 9999 FEW030 14/08 Q1017 NOSIG Departures: 24 Arrivals: 24 No hay condiciones
LEMH 240/10 LEMH 072030Z 24010KT 210V280 9999 FEW022 13/10 Q1017 Departures: 19 Arrivals: 19 No hay condiciones
LEPA VRB/02 LEPA 072030Z VRB02KT 9999 FEW025 10/09 Q1017 NOSIG Departures: 24R Arrivals: 24L No hay condiciones

LEAS 220/09 LEAS 072030Z 22009KT 9999 -RA FEW042 BKN056 09/08 Q1014 TEMPO 3000 RA Departures: 29 Arrivals: 29 No hay condiciones
LECO 350/12 LECO 072030Z 35012KT 320V030 8000 -RA SCT013 BKN017 10/09 Q1016 TEMPO 4000 RA Departures: 03 Arrivals: 21 No hay condiciones
LELN 210/07 LELN 072030Z 21007KT 9999 SCT008 04/03 Q1014 Departures: 23 Arrivals: 23 No hay condiciones
LEST 290/09 LEST 072030Z 29009KT 240V360 7000 -RA SCT004 OVC011 08/08 Q1015 NOSIG Departures: 17 Arrivals: 17 No hay condiciones
LEVX 000/00 LEVX 072030Z 00000KT 9999 SCT020 BKN034 10/09 Q1016 NOSIG Departures: 20 Arrivals: 20 No hay condiciones

LEAL 250/05 LEAL 072030Z 25005KT CAVOK 11/06 Q1017 NOSIG Departures: 28 Arrivals: 28 No hay condiciones
LECH VRB/02 LECH 072030Z AUTO VRB02KT 9999 NCD 09/06 Q1016 Departures: 06 Arrivals: 06 No hay condiciones
LELC 290/04 LELC 072030Z AUTO 29004KT 9000 NCD 11/07 Q1017 Departures: 05R Arrivals: 05R No hay condiciones
LEMI 240/06 LEMI 072030Z 24006KT CAVOK 12/03 Q1017 Departures: 21 Arrivals: 21 No hay condiciones
LEVC 270/07 LEVC 072030Z 27007KT CAVOK 12/M00 Q1016 NOSIG Departures: 30 Arrivals: 30 No hay condiciones

115total visits,1visits today

PHP Code Snippets Powered By : XYZScripts.com

WhatsApp chat